Time;durP1;ratioP1;P1;durP2;ratioP2;P2;SDS_P1;SDS_P2;PMS_P1;PMS_P2;Temp;Humidity;BMP_temperature;BMP_pressure;BME280_temperature;BME280_humidity;BME280_pressure;Samples;Min_cycle;Max_cycle;Signal;HPM_P1;HPM_P2
2021/03/28 00:02:15;;;;;;;2.60;1.70;;;;;;;9.00;48.55;96608.66;5032138;28;20437;-74
2021/03/28 00:04:47;;;;;;;3.38;1.58;;;;;;;8.90;48.34;96613.13;5030598;28;20541;-72
2021/03/28 00:07:12;;;;;;;3.78;2.00;;;;;;;8.85;48.49;96609.41;5033730;28;20029;-74
2021/03/28 00:09:42;;;;;;;3.10;1.85;;;;;;;8.88;48.30;96599.31;5031712;28;20034;-73
2021/03/28 00:12:36;;;;;;;4.38;1.90;;;;;;;8.99;48.01;96612.38;5031776;28;20300;-72
2021/03/28 00:15:10;;;;;;;6.03;1.77;;;;;;;8.96;48.06;96609.47;5031697;28;20037;-73
2021/03/28 00:17:50;;;;;;;2.83;1.52;;;;;;;8.50;48.03;96564.09;5031347;28;20041;-72
2021/03/28 00:20:15;;;;;;;3.90;1.40;;;;;;;8.72;47.62;96611.69;5031743;28;20120;-72
2021/03/28 00:22:47;;;;;;;8.60;1.73;;;;;;;8.77;47.71;96615.19;5031570;28;20129;-72
2021/03/28 00:25:32;;;;;;;2.72;1.50;;;;;;;8.91;47.54;96614.75;5033557;28;20057;-71
2021/03/28 00:28:00;;;;;;;2.75;1.55;;;;;;;8.89;47.05;96616.84;5031225;28;20128;-72
2021/03/28 00:30:34;;;;;;;3.67;1.75;;;;;;;8.83;46.97;96619.47;5046807;28;20044;-71
2021/03/28 00:33:00;;;;;;;3.65;1.48;;;;;;;8.96;47.26;96618.22;5031057;28;20045;-71
2021/03/28 00:35:33;;;;;;;3.00;1.55;;;;;;;8.69;47.03;96623.59;5031367;28;20034;-71
2021/03/28 00:38:14;;;;;;;4.20;1.58;;;;;;;8.75;47.35;96601.38;5031062;28;20045;-72
2021/03/28 00:40:42;;;;;;;4.05;1.58;;;;;;;8.99;46.91;96614.25;5031534;28;20048;-73
2021/03/28 00:43:15;;;;;;;4.63;1.63;;;;;;;9.07;46.99;96616.41;5032813;28;20017;-73
2021/03/28 00:45:40;;;;;;;3.03;1.48;;;;;;;9.10;46.69;96608.72;5031365;28;20045;-73
2021/03/28 00:48:16;;;;;;;5.55;1.75;;;;;;;9.03;46.43;96610.81;5030762;28;20041;-71
2021/03/28 00:50:58;;;;;;;4.43;1.60;;;;;;;9.13;46.48;96610.06;5030934;28;20373;-71
2021/03/28 00:53:31;;;;;;;8.52;1.95;;;;;;;9.16;46.50;96616.69;5030837;28;20068;-71
2021/03/28 00:56:04;;;;;;;4.35;1.70;;;;;;;9.14;46.48;96606.34;5030952;28;20041;-71
2021/03/28 00:58:48;;;;;;;3.28;1.60;;;;;;;9.21;46.55;96612.22;5032807;28;20032;-72
2021/03/28 01:01:35;;;;;;;4.03;1.30;;;;;;;9.11;46.90;96596.28;5031091;28;20045;-72
2021/03/28 01:04:09;;;;;;;6.05;2.60;;;;;;;9.00;47.19;96606.00;5030902;28;20044;-71
2021/03/28 01:06:53;;;;;;;6.65;2.30;;;;;;;9.07;47.35;96608.44;5029466;28;20503;-72
2021/03/28 01:09:49;;;;;;;4.32;1.40;;;;;;;9.07;47.58;96597.84;5028062;28;20054;-72
2021/03/28 01:12:33;;;;;;;3.58;1.52;;;;;;;9.10;47.90;96602.63;5030849;28;20036;-72
2021/03/28 01:15:37;;;;;;;5.50;1.85;;;;;;;9.15;47.89;96599.97;5030704;28;20042;-72
2021/03/28 01:18:08;;;;;;;2.92;1.42;;;;;;;9.18;47.86;96598.69;5030394;28;20045;-71
2021/03/28 01:20:33;;;;;;;4.03;1.73;;;;;;;9.18;48.48;96588.84;5030401;28;20077;-74
2021/03/28 01:23:26;;;;;;;5.80;1.67;;;;;;;9.15;48.48;96584.06;5030148;28;20069;-71
2021/03/28 01:26:16;;;;;;;2.70;1.27;;;;;;;9.18;48.27;96588.84;5030628;28;20022;-72
2021/03/28 01:28:51;;;;;;;3.20;1.38;;;;;;;9.17;48.75;96587.25;5030379;28;20021;-72
2021/03/28 01:31:20;;;;;;;3.97;1.95;;;;;;;9.16;48.94;96585.66;5031977;28;20029;-71
2021/03/28 01:34:17;;;;;;;4.50;1.98;;;;;;;9.09;49.29;96574.47;5030265;28;20125;-71
2021/03/28 01:37:10;;;;;;;5.22;1.77;;;;;;;9.08;49.79;96586.94;5028561;28;20704;-71
2021/03/28 01:39:43;;;;;;;3.33;1.45;;;;;;;9.05;49.63;96581.34;5030349;28;20095;-72
2021/03/28 01:42:27;;;;;;;3.42;1.67;;;;;;;9.02;50.00;96581.88;5030347;28;20407;-71
2021/03/28 01:45:00;;;;;;;4.35;1.95;;;;;;;8.99;50.00;96572.56;5029208;28;20033;-71
2021/03/28 01:47:28;;;;;;;4.78;1.50;;;;;;;8.96;50.25;96575.75;5029895;28;20052;-72
2021/03/28 01:50:22;;;;;;;2.47;2.00;;;;;;;8.91;50.18;96577.59;5029752;28;20399;-71
2021/03/28 01:53:00;;;;;;;3.95;1.88;;;;;;;8.83;50.52;96570.91;5029291;28;20041;-72
2021/03/28 01:55:35;;;;;;;5.90;2.05;;;;;;;8.79;51.02;96578.56;5031604;28;20033;-73
2021/03/28 01:58:38;;;;;;;3.72;1.73;;;;;;;8.65;50.95;96572.13;5029842;28;20100;-72
2021/03/28 02:01:09;;;;;;;3.25;1.63;;;;;;;8.67;51.01;96570.00;5029821;28;20132;-71
2021/03/28 02:03:56;;;;;;;3.17;1.70;;;;;;;8.66;51.39;96572.94;5029782;28;20053;-71
2021/03/28 02:07:12;;;;;;;3.08;1.73;;;;;;;8.66;51.19;96575.59;5029709;28;20041;-71
2021/03/28 02:09:46;;;;;;;3.25;2.15;;;;;;;8.61;51.44;96578.22;5020189;28;20052;-71
2021/03/28 02:12:20;;;;;;;3.65;2.00;;;;;;;8.56;51.39;96577.13;5029317;28;20112;-72
2021/03/28 02:15:09;;;;;;;3.03;1.95;;;;;;;8.55;51.67;96577.38;5029492;28;20068;-72
2021/03/28 02:17:53;;;;;;;4.40;1.90;;;;;;;8.49;51.17;96563.25;5029032;28;20716;-72
2021/03/28 02:20:37;;;;;;;4.45;1.73;;;;;;;8.49;51.58;96573.88;5028897;28;20037;-72
2021/03/28 02:23:24;;;;;;;3.65;1.92;;;;;;;8.44;51.98;96578.34;5029388;28;20045;-71
2021/03/28 02:26:00;;;;;;;3.75;2.10;;;;;;;8.40;51.74;96575.41;5029244;28;20017;-71
2021/03/28 02:28:51;;;;;;;4.25;1.80;;;;;;;8.29;51.79;96566.56;5030075;28;20025;-71
2021/03/28 02:31:22;;;;;;;4.88;1.65;;;;;;;8.34;51.96;96573.72;5028831;28;20034;-70
2021/03/28 02:33:55;;;;;;;5.68;1.90;;;;;;;8.27;52.01;96557.25;5029023;28;20506;-71
2021/03/28 02:36:26;;;;;;;3.15;1.98;;;;;;;8.29;52.42;96563.91;5029098;28;20040;-71
2021/03/28 02:39:14;;;;;;;4.50;2.05;;;;;;;8.23;52.14;96567.56;5028718;28;20115;-71
2021/03/28 02:41:51;;;;;;;3.78;1.55;;;;;;;8.19;52.46;96565.66;5028865;28;20541;-71
2021/03/28 02:44:50;;;;;;;5.20;2.08;;;;;;;8.12;52.92;96565.09;5028883;28;20071;-72
2021/03/28 02:47:52;;;;;;;6.25;2.00;;;;;;;8.06;52.43;96562.41;5028605;28;20407;-71
2021/03/28 02:50:39;;;;;;;2.65;1.60;;;;;;;8.00;52.44;96562.63;5027262;28;20403;-70
2021/03/28 02:53:23;;;;;;;5.78;2.13;;;;;;;7.94;53.29;96572.38;5028456;28;20569;-71
2021/03/28 02:56:00;;;;;;;4.95;2.33;;;;;;;7.93;53.16;96575.25;5028718;28;20034;-72
2021/03/28 02:58:41;;;;;;;4.60;1.95;;;;;;;7.94;52.93;96577.66;5030458;28;20037;-71
2021/03/28 03:01:43;;;;;;;3.35;1.65;;;;;;;7.97;53.34;96577.16;5029043;28;20068;-72
2021/03/28 03:04:46;;;;;;;3.17;1.70;;;;;;;7.89;52.96;96571.53;5028995;28;20041;-71
2021/03/28 03:07:11;;;;;;;9.65;2.10;;;;;;;7.94;53.21;96572.38;5004626;28;20045;-71
2021/03/28 03:10:25;;;;;;;3.97;1.95;;;;;;;7.90;52.86;96571.28;5027223;28;20449;-71
2021/03/28 03:13:08;;;;;;;6.35;2.28;;;;;;;7.78;52.83;96566.13;5021680;28;20057;-71
2021/03/28 03:15:47;;;;;;;4.25;1.70;;;;;;;7.84;53.73;96584.72;5028505;28;20033;-70
2021/03/28 03:18:42;;;;;;;3.63;2.22;;;;;;;7.79;53.14;96572.22;5028437;28;20046;-71
2021/03/28 03:21:13;;;;;;;2.97;1.90;;;;;;;7.75;53.46;96571.94;5028550;28;20096;-71
2021/03/28 03:24:20;;;;;;;4.77;1.77;;;;;;;7.53;53.88;96552.66;5027279;28;20099;-72
2021/03/28 03:27:15;;;;;;;4.18;1.90;;;;;;;7.58;54.58;96573.09;5028250;28;20350;-72
2021/03/28 03:30:03;;;;;;;4.15;1.58;;;;;;;7.41;54.71;96573.16;5027217;28;20470;-73
2021/03/28 03:32:43;;;;;;;2.80;2.35;;;;;;;7.22;55.37;96578.78;5029757;28;20714;-73
2021/03/28 03:35:21;;;;;;;3.85;1.50;;;;;;;7.18;55.09;96577.66;5032341;28;20119;-74
2021/03/28 03:37:46;;;;;;;7.28;1.92;;;;;;;7.15;54.87;96583.44;5031865;28;20049;-71
2021/03/28 03:40:36;;;;;;;4.93;1.90;;;;;;;6.92;55.08;96541.38;5034290;28;20056;-73
2021/03/28 03:43:14;;;;;;;4.90;2.13;;;;;;;7.11;55.00;96584.19;5032155;28;20039;-70
2021/03/28 03:46:02;;;;;;;4.65;1.98;;;;;;;7.00;55.72;96585.91;5032178;28;20041;-72
2021/03/28 03:48:27;;;;;;;6.57;2.10;;;;;;;6.87;55.67;96584.44;5031800;28;20442;-70
2021/03/28 03:51:26;;;;;;;3.75;1.75;;;;;;;6.68;56.13;96589.19;5030591;28;20033;-73
2021/03/28 03:54:12;;;;;;;5.20;1.63;;;;;;;6.57;56.95;96590.09;5032041;28;20564;-71
2021/03/28 03:57:02;;;;;;;4.07;2.13;;;;;;;6.44;57.46;96598.34;5030688;28;20040;-71
2021/03/28 04:00:05;;;;;;;4.47;1.95;;;;;;;6.31;57.14;96594.19;5032054;28;20040;-73
2021/03/28 04:02:43;;;;;;;;;;;;;;;6.18;58.23;96599.78;5032264;28;20033;-71
2021/03/28 04:05:39;;;;;;;4.82;2.10;;;;;;;6.06;58.34;96599.88;5031840;28;19921;-71
2021/03/28 04:08:19;;;;;;;4.90;2.05;;;;;;;5.92;58.46;96591.44;5031569;28;20045;-70
2021/03/28 04:11:00;;;;;;;7.95;2.53;;;;;;;5.81;58.57;96594.94;5031836;28;20057;-74
2021/03/28 04:13:28;;;;;;;2.67;2.20;;;;;;;5.71;58.61;96594.75;5033335;28;20101;-71
2021/03/28 04:16:08;;;;;;;4.68;2.40;;;;;;;5.64;58.86;96594.91;5031843;28;20041;-72
2021/03/28 04:18:49;;;;;;;3.38;1.77;;;;;;;5.55;58.90;96598.97;5031576;28;20045;-71
2021/03/28 04:21:20;;;;;;;5.38;2.22;;;;;;;5.47;59.04;96605.41;5031169;28;20742;-71
2021/03/28 04:23:54;;;;;;;7.80;2.45;;;;;;;5.29;59.74;96583.69;5031577;28;20113;-73
2021/03/28 04:26:24;;;;;;;8.52;2.38;;;;;;;5.27;59.83;96591.81;5030105;28;20049;-71
2021/03/28 04:28:56;;;;;;;6.05;2.53;;;;;;;5.21;60.03;96600.66;5031315;28;20033;-72
2021/03/28 04:31:46;;;;;;;5.20;2.55;;;;;;;5.15;60.24;96597.13;5033110;28;20022;-71
2021/03/28 04:34:50;;;;;;;4.25;2.20;;;;;;;5.07;60.57;96602.78;5032131;28;20423;-71
2021/03/28 04:37:27;;;;;;;4.90;2.17;;;;;;;5.05;60.84;96606.69;5023904;28;20076;-72
2021/03/28 04:40:08;;;;;;;6.70;2.17;;;;;;;4.97;60.95;96615.75;5029828;28;20136;-71
2021/03/28 04:42:55;;;;;;;3.25;2.03;;;;;;;4.92;60.84;96620.94;5030844;28;20119;-70
2021/03/28 04:45:52;;;;;;;7.68;2.53;;;;;;;4.84;61.23;96622.06;5031209;28;20045;-71
2021/03/28 04:48:30;;;;;;;5.50;2.10;;;;;;;4.77;61.44;96616.13;5030925;28;20100;-72
2021/03/28 04:51:01;;;;;;;4.40;1.92;;;;;;;4.70;61.64;96621.50;5030994;28;20099;-71
2021/03/28 04:54:04;;;;;;;3.90;1.83;;;;;;;4.68;61.83;96622.78;5030767;28;20124;-71
2021/03/28 04:56:50;;;;;;;6.43;1.90;;;;;;;4.64;61.87;96634.78;5029327;28;20629;-71
2021/03/28 04:59:43;;;;;;;4.35;1.88;;;;;;;4.62;62.35;96639.50;5030906;28;20057;-71
2021/03/28 05:02:35;;;;;;;5.78;2.20;;;;;;;4.61;62.01;96638.72;5030422;28;20542;-74
2021/03/28 05:05:37;;;;;;;2.42;1.77;;;;;;;4.60;62.43;96639.72;5029416;28;20038;-71
2021/03/28 05:08:34;;;;;;;5.72;1.75;;;;;;;4.60;62.27;96647.63;5030241;28;20510;-70
2021/03/28 05:11:08;;;;;;;4.15;1.85;;;;;;;4.62;62.26;96644.78;5030781;28;20100;-73
2021/03/28 05:13:55;;;;;;;5.22;1.73;;;;;;;4.65;62.25;96641.66;5032365;28;20025;-73
2021/03/28 05:16:42;;;;;;;3.70;1.67;;;;;;;4.69;62.03;96648.88;5031043;28;20137;-71
2021/03/28 05:19:26;;;;;;;5.15;1.92;;;;;;;4.75;62.32;96654.28;5030771;28;20073;-71
2021/03/28 05:22:16;;;;;;;5.60;1.90;;;;;;;4.83;62.23;96651.31;5030208;28;20041;-71
2021/03/28 05:25:03;;;;;;;2.90;1.70;;;;;;;5.00;62.01;96660.09;5030448;28;20037;-71
2021/03/28 05:28:06;;;;;;;4.35;1.75;;;;;;;5.17;61.79;96670.78;5029754;28;20185;-72
2021/03/28 05:31:07;;;;;;;3.42;1.67;;;;;;;5.41;61.50;96674.94;5038367;28;20041;-74
2021/03/28 05:33:47;;;;;;;5.75;2.05;;;;;;;5.72;61.03;96665.00;5030703;28;20179;-71
2021/03/28 05:36:22;;;;;;;3.25;1.85;;;;;;;5.97;60.40;96667.34;5030167;28;20037;-71
2021/03/28 05:39:16;;;;;;;4.43;1.30;;;;;;;6.25;59.64;96667.31;5029828;28;20049;-71
2021/03/28 05:42:03;;;;;;;2.35;1.58;;;;;;;6.53;58.56;96670.13;5030434;28;20041;-71
2021/03/28 05:44:35;;;;;;;3.10;1.40;;;;;;;6.66;58.02;96678.53;5030193;28;20061;-71
2021/03/28 05:47:45;;;;;;;3.30;1.42;;;;;;;6.81;57.74;96669.22;5029676;28;20049;-71
2021/03/28 05:50:10;;;;;;;2.47;1.55;;;;;;;6.94;57.14;96679.47;5007325;28;20038;-71
2021/03/28 05:53:00;;;;;;;6.18;1.80;;;;;;;7.05;56.59;96683.84;5028199;28;20040;-71
2021/03/28 05:55:43;;;;;;;4.18;1.88;;;;;;;7.12;56.29;96681.88;5029777;28;20038;-72
2021/03/28 05:58:36;;;;;;;3.13;1.38;;;;;;;7.09;56.43;96684.19;5029823;28;20045;-72
2021/03/28 06:01:30;;;;;;;4.95;2.25;;;;;;;7.03;56.55;96686.75;5029917;28;20049;-72
2021/03/28 06:04:32;;;;;;;5.75;1.23;;;;;;;7.06;56.46;96692.59;5029814;28;20053;-72
2021/03/28 06:07:41;;;;;;;4.22;1.80;;;;;;;7.03;55.90;96694.69;5029309;28;20499;-73
2021/03/28 06:10:36;;;;;;;2.92;1.55;;;;;;;7.04;56.00;96695.50;5028974;28;20136;-71
2021/03/28 06:13:23;;;;;;;3.10;1.67;;;;;;;7.06;55.61;96701.34;5029313;28;20095;-72
2021/03/28 06:16:36;;;;;;;3.08;1.65;;;;;;;7.10;56.34;96702.44;5029355;28;20053;-73
2021/03/28 06:19:23;;;;;;;5.40;1.70;;;;;;;7.16;56.44;96708.63;5019181;28;20531;-73
2021/03/28 06:22:22;;;;;;;3.47;1.67;;;;;;;7.25;55.82;96710.59;5029128;28;20044;-72
2021/03/28 06:25:03;;;;;;;3.95;1.50;;;;;;;7.39;55.80;96715.56;5029459;28;20041;-72
2021/03/28 06:27:59;;;;;;;2.60;1.30;;;;;;;7.55;54.96;96720.81;5028966;28;20545;-71
2021/03/28 06:30:44;;;;;;;4.75;1.77;;;;;;;7.73;54.88;96717.06;5029436;28;20056;-72
2021/03/28 06:33:47;;;;;;;5.97;1.60;;;;;;;7.79;54.79;96715.28;5029158;28;20048;-72
2021/03/28 06:36:40;;;;;;;3.65;1.73;;;;;;;7.82;53.96;96725.34;5029314;28;20500;-72
2021/03/28 06:39:45;;;;;;;5.18;1.80;;;;;;;7.80;53.91;96733.56;5026236;28;20049;-73
2021/03/28 06:42:53;;;;;;;6.60;1.95;;;;;;;7.85;53.52;96734.66;5028821;28;20048;-74
2021/03/28 06:45:40;;;;;;;4.18;1.60;;;;;;;7.92;52.93;96736.06;5029026;28;20569;-73
2021/03/28 06:48:31;;;;;;;2.72;1.50;;;;;;;8.00;53.28;96730.34;5029301;28;20076;-77
2021/03/28 06:51:24;;;;;;;4.10;1.80;;;;;;;8.19;53.02;96745.91;5027569;28;20044;-75
2021/03/28 06:54:28;;;;;;;2.40;1.70;;;;;;;8.38;52.83;96749.84;5029188;28;20466;-76
2021/03/28 06:57:28;;;;;;;2.63;1.33;;;;;;;8.56;52.35;96748.72;5006644;28;20089;-75
2021/03/28 07:00:29;;;;;;;2.80;1.60;;;;;;;8.72;51.65;96742.47;5029015;28;20065;-76
2021/03/28 07:03:19;;;;;;;4.18;1.50;;;;;;;8.96;50.78;96756.22;5035457;28;20037;-76
2021/03/28 07:06:03;;;;;;;5.20;1.55;;;;;;;9.21;50.53;96752.13;5028683;28;20075;-75
2021/03/28 07:08:47;;;;;;;4.00;1.88;;;;;;;9.43;49.36;96765.31;5028085;28;20480;-74
2021/03/28 07:11:30;;;;;;;5.60;1.67;;;;;;;9.60;48.66;96757.97;5028895;28;20550;-75
2021/03/28 07:13:55;;;;;;;4.97;1.17;;;;;;;9.72;48.36;96761.19;5029405;28;20112;-76
2021/03/28 07:16:58;;;;;;;2.22;1.17;;;;;;;9.87;47.88;96760.47;5030961;28;20161;-74
2021/03/28 07:19:35;;;;;;;4.90;1.48;;;;;;;9.96;47.34;96766.09;5029178;28;20045;-73
2021/03/28 07:22:28;;;;;;;3.92;1.50;;;;;;;9.96;47.26;96758.91;5027621;28;20555;-72
2021/03/28 07:24:56;;;;;;;;;;;;;;;10.04;47.55;96758.44;5032317;28;20046;-77
2021/03/28 07:27:30;;;;;;;4.50;1.33;;;;;;;10.09;47.25;96761.09;5033410;28;19921;-79
2021/03/28 07:30:30;;;;;;;2.83;1.15;;;;;;;10.10;46.11;96754.72;5033734;28;20046;-75
2021/03/28 07:33:46;;;;;;;3.88;1.33;;;;;;;9.90;45.11;96752.00;5033242;28;20495;-75
2021/03/28 07:36:26;;;;;;;3.83;1.42;;;;;;;10.11;46.37;96753.66;5026473;28;20342;-82
2021/03/28 07:39:43;;;;;;;7.05;1.70;;;;;;;10.29;45.97;96749.78;5035891;28;20132;-81
2021/03/28 07:42:50;;;;;;;6.30;1.73;;;;;;;10.48;46.21;96743.94;5022518;28;20148;-77
2021/03/28 07:45:42;;;;;;;6.63;1.63;;;;;;;10.78;44.26;96759.94;5023170;28;20045;-75
2021/03/28 07:48:26;;;;;;;2.13;1.63;;;;;;;11.06;44.07;96761.28;5030617;28;20061;-76
2021/03/28 07:51:08;;;;;;;3.42;1.40;;;;;;;11.26;43.13;96759.66;5032606;28;20037;-77
2021/03/28 07:54:05;;;;;;;5.70;1.90;;;;;;;11.43;42.59;96760.19;5029254;28;20034;-77
2021/03/28 07:57:05;;;;;;;7.53;1.83;;;;;;;11.63;42.53;96754.81;5029079;28;20646;-74
2021/03/28 07:59:30;;;;;;;6.00;1.98;;;;;;;11.67;41.81;96750.53;5027977;28;20037;-75
2021/03/28 08:02:33;;;;;;;5.72;1.88;;;;;;;11.67;41.98;96749.75;5028854;28;20104;-74
2021/03/28 08:05:13;;;;;;;4.68;2.03;;;;;;;11.02;41.93;96754.09;5029525;28;20042;-70
2021/03/28 08:07:54;;;;;;;5.30;1.90;;;;;;;10.87;43.26;96747.72;5027739;28;20364;-69
2021/03/28 08:10:22;;;;;;;6.30;1.90;;;;;;;11.09;43.17;96746.63;5028617;28;20064;-70
2021/03/28 08:13:16;;;;;;;5.07;1.95;;;;;;;11.29;43.01;96741.28;5041178;22;20049;-71
2021/03/28 08:16:30;;;;;;;7.32;2.17;;;;;;;11.42;41.95;96735.41;5004019;28;20038;-69
2021/03/28 08:19:25;;;;;;;6.80;1.80;;;;;;;11.17;42.28;96722.13;4998483;28;20042;-74
2021/03/28 08:22:00;;;;;;;3.05;1.45;;;;;;;11.68;41.69;96735.34;5013367;28;20383;-69
2021/03/28 08:24:43;;;;;;;4.28;1.80;;;;;;;11.88;41.16;96737.97;5031023;28;20500;-72
2021/03/28 08:27:20;;;;;;;4.65;1.50;;;;;;;11.99;40.30;96732.59;5030909;28;20381;-71
2021/03/28 08:30:10;;;;;;;4.72;2.03;;;;;;;11.59;40.60;96712.97;5031382;28;20083;-71
2021/03/28 08:32:35;;;;;;;7.63;2.22;;;;;;;10.06;42.97;96739.56;5030716;28;20033;-70
2021/03/28 08:35:35;;;;;;;5.55;2.00;;;;;;;11.33;42.16;96739.69;5030852;28;20397;-72
2021/03/28 08:38:25;;;;;;;3.60;1.60;;;;;;;11.75;41.22;96741.19;5031067;28;20530;-76
2021/03/28 08:41:04;;;;;;;5.50;1.75;;;;;;;12.25;39.40;96749.28;5031157;28;20056;-75
2021/03/28 08:44:06;;;;;;;3.75;1.80;;;;;;;12.41;38.87;96737.44;5015038;28;20025;-71
2021/03/28 08:47:04;;;;;;;4.55;1.40;;;;;;;12.83;38.86;96736.88;5026565;28;20046;-68
2021/03/28 08:49:54;;;;;;;5.15;1.95;;;;;;;13.12;38.04;96738.81;4999781;28;20061;-70
2021/03/28 08:53:05;;;;;;;3.67;1.52;;;;;;;13.24;38.18;96734.69;5019109;28;20038;-72
2021/03/28 08:55:52;;;;;;;7.32;1.83;;;;;;;13.26;37.54;96737.09;4996381;28;20136;-73
2021/03/28 08:58:25;;;;;;;4.80;1.80;;;;;;;12.92;37.82;96727.19;5011664;28;20056;-69
2021/03/28 09:01:15;;;;;;;6.90;1.60;;;;;;;13.57;37.04;96740.28;5011016;28;20034;-73
2021/03/28 09:03:54;;;;;;;6.07;2.05;;;;;;;13.88;36.38;96737.25;5011145;28;20072;-70
2021/03/28 09:06:33;;;;;;;4.82;1.80;;;;;;;13.58;35.44;96723.16;4993316;28;20501;-67
2021/03/28 09:09:25;;;;;;;6.30;1.77;;;;;;;13.84;36.15;96704.13;4992867;28;20058;-72
2021/03/28 09:12:06;;;;;;;6.57;1.70;;;;;;;13.53;35.37;96712.50;5010875;28;20046;-72
2021/03/28 09:14:47;;;;;;;6.25;1.95;;;;;;;13.76;35.55;96724.28;5011112;28;20395;-73
2021/03/28 09:17:34;;;;;;;5.35;2.92;;;;;;;11.99;37.41;96736.06;4992575;28;20037;-73
2021/03/28 09:20:05;;;;;;;5.70;1.95;;;;;;;11.13;39.71;96742.38;5010995;28;20036;-76
2021/03/28 09:22:46;;;;;;;7.40;1.85;;;;;;;11.35;39.43;96744.75;5012303;28;20056;-72
2021/03/28 09:25:17;;;;;;;5.55;1.80;;;;;;;12.70;38.04;96745.53;4991707;28;20050;-76
2021/03/28 09:28:03;;;;;;;4.47;1.40;;;;;;;13.41;37.09;96734.28;4991337;28;20038;-73
2021/03/28 09:30:55;;;;;;;5.82;1.67;;;;;;;13.92;35.93;96728.38;5004819;28;20129;-70
2021/03/28 09:33:24;;;;;;;3.60;1.50;;;;;;;14.21;35.30;96730.94;4997775;28;20035;-85
2021/03/28 09:36:02;;;;;;;4.10;1.58;;;;;;;14.40;35.13;96716.78;5002247;28;20508;-78
2021/03/28 09:38:33;;;;;;;4.20;1.50;;;;;;;14.43;34.96;96706.28;5010981;28;20030;-75
2021/03/28 09:41:08;;;;;;;5.80;1.75;;;;;;;13.95;33.95;96711.75;5010299;28;20361;-78
2021/03/28 09:43:36;;;;;;;4.93;1.60;;;;;;;13.77;35.12;96723.22;5012427;28;20424;-73
2021/03/28 09:46:26;;;;;;;4.45;1.25;;;;;;;13.85;34.48;96719.88;5010779;28;20087;-84
2021/03/28 09:48:54;;;;;;;5.63;1.60;;;;;;;12.90;35.61;96716.00;5009844;28;20045;-76
2021/03/28 09:52:09;;;;;;;3.40;1.70;;;;;;;13.31;35.21;96715.69;5009625;28;20140;-77
2021/03/28 09:54:53;;;;;;;5.25;1.90;;;;;;;13.36;35.31;96704.13;5010050;28;20034;-71
2021/03/28 09:57:49;;;;;;;4.38;1.42;;;;;;;13.26;36.26;96694.34;5009851;28;20049;-67
2021/03/28 10:00:30;;;;;;;4.82;1.60;;;;;;;13.51;35.84;96688.75;5009598;28;20475;-69
2021/03/28 10:03:01;;;;;;;5.65;2.13;;;;;;;13.18;36.57;96686.91;5009794;28;20050;-70
2021/03/28 10:05:32;;;;;;;3.40;1.50;;;;;;;13.52;35.96;96671.59;5008428;28;20161;-78
2021/03/28 10:08:06;;;;;;;3.90;1.70;;;;;;;13.96;36.07;96699.94;4989237;28;20273;-67
2021/03/28 10:11:12;;;;;;;3.75;1.60;;;;;;;13.92;35.00;96695.47;4992293;28;20396;-81
2021/03/28 10:13:46;;;;;;;4.05;1.80;;;;;;;14.36;35.00;96680.97;4974264;28;20046;-76
2021/03/28 10:16:12;;;;;;;3.92;1.52;;;;;;;14.50;34.34;96677.31;4991574;28;20042;-72
2021/03/28 10:19:03;;;;;;;4.10;1.30;;;;;;;14.54;34.07;96680.19;5004892;28;20045;-75
2021/03/28 10:22:00;;;;;;;7.38;1.60;;;;;;;14.74;34.28;96685.25;5009150;28;20050;-76
2021/03/28 10:24:31;;;;;;;7.90;1.73;;;;;;;14.75;34.23;96688.72;5009730;28;20536;-74
2021/03/28 10:27:28;;;;;;;4.32;1.40;;;;;;;14.46;33.18;96683.50;5009206;28;20500;-76
2021/03/28 10:30:00;;;;;;;5.80;1.58;;;;;;;13.89;34.60;96685.34;5009363;28;20497;-73
2021/03/28 10:32:48;;;;;;;;;;;;;;;11.86;35.00;96681.44;5009404;28;20037;-74
2021/03/28 10:35:24;;;;;;;3.60;1.38;;;;;;;12.21;35.13;96685.78;5008374;28;19960;-74
2021/03/28 10:38:10;;;;;;;3.22;1.35;;;;;;;11.33;36.38;96690.94;4990067;28;20030;-77
2021/03/28 10:40:46;;;;;;;1.95;1.33;;;;;;;11.24;35.96;96669.38;4991404;28;20089;-76
2021/03/28 10:43:26;;;;;;;3.88;1.38;;;;;;;11.50;36.05;96679.97;4972304;28;20034;-75
2021/03/28 10:46:01;;;;;;;5.20;1.70;;;;;;;11.64;36.21;96680.97;4989217;28;20034;-75
2021/03/28 10:49:04;;;;;;;2.15;1.10;;;;;;;11.17;37.71;96693.63;5004024;28;20500;-75
2021/03/28 10:51:49;;;;;;;4.35;1.27;;;;;;;11.28;36.25;96683.75;5008275;28;20092;-78
2021/03/28 10:54:33;;;;;;;5.05;1.95;;;;;;;11.06;37.54;96680.63;4996264;28;20411;-74
2021/03/28 10:57:26;;;;;;;2.95;1.15;;;;;;;11.66;36.38;96684.97;4989060;28;20034;-73
2021/03/28 11:00:10;;;;;;;6.43;1.35;;;;;;;11.32;36.47;96678.69;4989045;28;20050;-73
2021/03/28 11:03:13;;;;;;;6.03;1.50;;;;;;;11.62;37.11;96678.59;4996773;28;20041;-75
2021/03/28 11:06:05;;;;;;;3.72;1.65;;;;;;;11.63;36.31;96679.41;5000569;28;20034;-74
2021/03/28 11:09:05;;;;;;;3.20;1.33;;;;;;;11.15;36.61;96682.44;4977756;28;20549;-73
2021/03/28 11:12:07;;;;;;;3.55;1.35;;;;;;;11.97;36.03;96669.66;5008681;28;20133;-74
2021/03/28 11:14:47;;;;;;;4.32;1.60;;;;;;;12.53;35.66;96670.38;4983511;28;20039;-71
2021/03/28 11:17:35;;;;;;;4.97;1.67;;;;;;;12.79;34.53;96663.75;4971126;28;20058;-75
2021/03/28 11:20:09;;;;;;;4.05;1.33;;;;;;;12.63;34.38;96664.94;4991428;28;20050;-73
2021/03/28 11:22:48;;;;;;;3.38;1.17;;;;;;;12.97;34.86;96668.41;5010436;28;20037;-75
2021/03/28 11:25:29;;;;;;;5.70;1.40;;;;;;;12.35;34.79;96650.50;5009228;28;20053;-72
2021/03/28 11:27:54;;;;;;;6.78;1.40;;;;;;;13.04;34.28;96668.06;5008477;28;20046;-71
2021/03/28 11:30:40;;;;;;;5.95;1.67;;;;;;;13.15;33.28;96656.19;5008691;28;20809;-76
2021/03/28 11:33:44;;;;;;;5.50;1.60;;;;;;;13.19;33.45;96659.91;5009732;28;20069;-81
2021/03/28 11:36:18;;;;;;;3.22;1.15;;;;;;;11.81;37.20;96652.09;4937136;28;20042;-76
2021/03/28 11:39:05;;;;;;;4.75;1.83;;;;;;;11.93;36.50;96655.28;4961586;28;20112;-71
2021/03/28 11:41:39;;;;;;;4.28;1.83;;;;;;;12.08;36.58;96649.06;4977953;28;20035;-71
2021/03/28 11:44:17;;;;;;;5.82;2.13;;;;;;;12.71;35.03;96653.69;4971122;28;20153;-74
2021/03/28 11:46:54;;;;;;;6.90;1.60;;;;;;;12.99;34.43;96642.19;4989118;28;20052;-72
2021/03/28 11:49:23;;;;;;;5.10;1.42;;;;;;;13.16;35.28;96635.63;5010225;28;20060;-70
2021/03/28 11:51:52;;;;;;;5.75;1.50;;;;;;;12.83;35.43;96638.06;4972935;28;20378;-72
2021/03/28 11:54:27;;;;;;;3.50;1.70;;;;;;;13.34;34.82;96640.25;5004262;28;20090;-71
2021/03/28 11:57:02;;;;;;;5.80;1.73;;;;;;;12.80;36.02;96640.53;4993802;28;20470;-75
2021/03/28 11:59:44;;;;;;;4.72;2.03;;;;;;;12.26;36.22;96631.59;4994501;28;20044;-72
2021/03/28 12:02:12;;;;;;;6.35;1.73;;;;;;;12.89;35.38;96636.16;4993375;28;20042;-72
2021/03/28 12:04:43;;;;;;;3.97;1.65;;;;;;;13.29;34.88;96628.84;5013744;28;20033;-72
2021/03/28 12:07:23;;;;;;;5.65;1.88;;;;;;;13.37;34.86;96626.34;5012031;28;20030;-72
2021/03/28 12:10:03;;;;;;;3.70;1.65;;;;;;;13.48;34.38;96625.13;4994357;28;20080;-72
2021/03/28 12:12:48;;;;;;;3.58;1.80;;;;;;;13.37;34.73;96626.34;4996076;28;20122;-70
2021/03/28 12:15:44;;;;;;;4.03;1.63;;;;;;;13.30;34.54;96617.84;4991542;28;20038;-71
2021/03/28 12:18:16;;;;;;;3.15;1.65;;;;;;;12.93;35.23;96619.28;5004271;28;20131;-71
2021/03/28 12:20:42;;;;;;;3.30;1.65;;;;;;;13.21;34.63;96608.88;5011661;28;20627;-71
2021/03/28 12:23:23;;;;;;;3.55;1.30;;;;;;;12.95;34.67;96627.84;5011492;28;20137;-72
2021/03/28 12:26:12;;;;;;;2.97;1.53;;;;;;;12.64;34.27;96619.31;4993507;28;20029;-72
2021/03/28 12:29:23;;;;;;;2.97;1.63;;;;;;;12.67;34.60;96613.41;5013216;28;20491;-70
2021/03/28 12:31:51;;;;;;;3.45;1.45;;;;;;;13.59;34.50;96612.44;4895838;29;20080;-72
2021/03/28 12:34:37;;;;;;;2.08;1.10;;;;;;;12.77;33.14;96560.97;5000846;28;20034;-71
2021/03/28 12:37:12;;;;;;;3.90;1.15;;;;;;;13.46;32.95;96603.25;5010947;28;20034;-71
2021/03/28 12:39:57;;;;;;;4.40;1.88;;;;;;;13.98;32.23;96604.16;4995207;28;20050;-72
2021/03/28 12:42:43;;;;;;;3.45;1.23;;;;;;;14.09;31.62;96590.66;5005115;28;20042;-71
2021/03/28 12:45:08;;;;;;;3.22;1.83;;;;;;;13.94;31.32;96595.13;4981460;28;20042;-71
2021/03/28 12:47:55;;;;;;;3.35;1.25;;;;;;;13.53;31.65;96606.38;4998586;28;20046;-71
2021/03/28 12:50:30;;;;;;;3.63;1.30;;;;;;;14.10;31.44;96585.00;5010790;28;20084;-71
2021/03/28 12:53:21;;;;;;;2.55;1.30;;;;;;;14.43;30.99;96571.63;5010743;28;20029;-72
2021/03/28 12:55:50;;;;;;;3.28;1.73;;;;;;;14.50;30.39;96572.88;5006001;28;20069;-70
2021/03/28 12:58:19;;;;;;;2.55;1.65;;;;;;;14.79;29.35;96580.69;5012478;28;20050;-71
2021/03/28 13:01:01;;;;;;;5.85;1.55;;;;;;;14.69;29.42;96575.50;5010164;28;20084;-72